createdAt,value
2022-11-17T00:01:43.087Z,5.22
2022-11-17T00:04:45.346Z,5.55
2022-11-17T00:07:47.310Z,3.50
2022-11-17T00:10:49.266Z,5.07
2022-11-17T00:13:51.080Z,5.15
2022-11-17T00:16:53.021Z,8.95
2022-11-17T00:19:54.885Z,4.65
2022-11-17T00:22:57.095Z,3.95
2022-11-17T00:25:59.076Z,3.67
2022-11-17T00:29:03.313Z,6.13
2022-11-17T00:32:05.592Z,4.53
2022-11-17T00:35:07.585Z,4.32
2022-11-17T00:38:09.470Z,4.15
2022-11-17T00:41:13.525Z,4.45
2022-11-17T00:44:16.174Z,4.53
2022-11-17T00:47:18.200Z,4.35
2022-11-17T00:50:20.073Z,4.28
2022-11-17T00:53:21.986Z,3.88
2022-11-17T00:56:24.194Z,7.30
2022-11-17T00:59:26.099Z,3.85
2022-11-17T01:02:27.967Z,3.53
2022-11-17T01:05:33.052Z,3.85
2022-11-17T01:08:35.266Z,4.93
2022-11-17T01:11:37.545Z,5.05
2022-11-17T01:14:39.373Z,4.32
2022-11-17T01:17:41.299Z,3.67
2022-11-17T01:20:43.157Z,2.83
2022-11-17T01:23:46.125Z,3.10
2022-11-17T01:26:47.998Z,4.85
2022-11-17T01:29:49.852Z,3.88
2022-11-17T01:32:51.694Z,3.25
2022-11-17T01:35:53.931Z,4.65
2022-11-17T01:38:56.110Z,3.55
2022-11-17T01:42:02.164Z,3.40
2022-11-17T01:45:25.862Z,4.78
2022-11-17T01:48:28.368Z,3.17
2022-11-17T01:51:32.686Z,3.67
2022-11-17T01:54:39.056Z,3.97
2022-11-17T01:58:03.120Z,3.45
2022-11-17T02:01:05.302Z,2.50
2022-11-17T02:04:09.676Z,4.32
2022-11-17T02:07:24.765Z,3.67
2022-11-17T02:10:30.058Z,4.00
2022-11-17T02:13:33.814Z,4.68
2022-11-17T02:16:35.987Z,4.55
2022-11-17T02:19:40.661Z,4.18
2022-11-17T02:22:48.571Z,3.22
2022-11-17T02:26:20.853Z,3.92
2022-11-17T02:29:33.914Z,4.05
2022-11-17T02:33:09.199Z,3.50
2022-11-17T02:36:31.018Z,3.85
2022-11-17T02:40:15.882Z,5.35
2022-11-17T02:43:21.934Z,3.90
2022-11-17T02:46:25.576Z,4.88
2022-11-17T02:49:38.084Z,4.53
2022-11-17T02:52:39.952Z,5.68
2022-11-17T02:55:47.974Z,6.00
2022-11-17T02:58:53.177Z,3.58
2022-11-17T03:01:57.795Z,5.88
2022-11-17T03:05:10.683Z,5.22
2022-11-17T03:08:18.678Z,5.30
2022-11-17T03:11:28.621Z,4.45
2022-11-17T03:14:45.477Z,4.38
2022-11-17T03:17:58.372Z,4.57
2022-11-17T03:21:10.763Z,5.85
2022-11-17T03:24:44.618Z,3.30
2022-11-17T03:27:49.098Z,5.75
2022-11-17T03:30:52.845Z,5.97
2022-11-17T03:33:55.965Z,3.97
2022-11-17T03:37:02.376Z,5.75
2022-11-17T03:40:17.206Z,4.32
2022-11-17T03:43:20.886Z,4.80
2022-11-17T03:46:25.691Z,4.53
2022-11-17T03:49:33.336Z,5.75
2022-11-17T03:52:36.638Z,5.38
2022-11-17T03:55:53.190Z,6.78
2022-11-17T03:59:00.726Z,4.65
2022-11-17T04:02:02.709Z,3.50
2022-11-17T04:05:08.120Z,5.40
2022-11-17T04:08:09.985Z,4.68
2022-11-17T04:11:11.954Z,4.55
2022-11-17T04:14:13.775Z,3.38
2022-11-17T04:17:15.669Z,5.60
2022-11-17T04:20:19.208Z,3.67
2022-11-17T04:23:21.752Z,5.15
2022-11-17T04:29:25.787Z,4.00
2022-11-17T04:32:29.885Z,4.25
2022-11-17T04:35:31.819Z,2.92
2022-11-17T04:38:34.288Z,4.60
2022-11-17T04:41:36.306Z,5.15
2022-11-17T04:44:38.123Z,3.35
2022-11-17T04:47:40.158Z,3.88
2022-11-17T04:50:42.025Z,3.38
2022-11-17T04:53:44.993Z,5.25
2022-11-17T04:56:47.141Z,3.42
2022-11-17T04:59:49.049Z,3.05
2022-11-17T05:02:50.890Z,5.15
2022-11-17T05:05:52.764Z,4.18
2022-11-17T05:08:56.124Z,3.60
2022-11-17T05:11:58.179Z,4.68
2022-11-17T05:15:00.126Z,3.60
2022-11-17T05:18:02.240Z,3.85
2022-11-17T05:21:05.461Z,3.33
2022-11-17T05:24:08.201Z,3.03
2022-11-17T05:27:10.014Z,5.57
2022-11-17T05:30:14.803Z,3.03
2022-11-17T05:33:16.633Z,3.05
2022-11-17T05:36:18.726Z,5.55
2022-11-17T05:39:20.569Z,3.42
2022-11-17T05:42:22.463Z,3.63
2022-11-17T05:45:24.285Z,2.70
2022-11-17T05:48:26.196Z,3.97
2022-11-17T05:51:28.077Z,5.25
2022-11-17T05:54:29.917Z,3.67
2022-11-17T06:00:41.614Z,2.33
2022-11-17T06:03:47.691Z,4.70
2022-11-17T06:06:50.397Z,3.38
2022-11-17T06:09:52.731Z,4.18
2022-11-17T06:12:54.623Z,2.92
2022-11-17T06:15:59.481Z,4.00
2022-11-17T06:19:09.258Z,3.92
2022-11-17T06:22:13.159Z,5.90
2022-11-17T06:25:16.786Z,4.25
2022-11-17T06:28:21.749Z,4.93
2022-11-17T06:31:27.688Z,6.07
2022-11-17T06:34:29.793Z,3.67
2022-11-17T06:37:31.836Z,4.18
2022-11-17T06:40:35.888Z,3.28
2022-11-17T06:43:38.134Z,2.90
2022-11-17T06:46:43.679Z,3.85
2022-11-17T06:49:48.183Z,4.35
2022-11-17T06:52:50.228Z,4.18
2022-11-17T06:55:53.388Z,4.20
2022-11-17T06:58:55.508Z,4.72
2022-11-17T07:01:57.556Z,4.55
2022-11-17T07:04:59.497Z,4.07
2022-11-17T07:08:04.086Z,3.15
2022-11-17T07:11:11.210Z,5.78
2022-11-17T07:14:13.182Z,4.57
2022-11-17T07:17:17.639Z,5.78
2022-11-17T07:20:20.059Z,6.68
2022-11-17T07:23:22.185Z,4.18
2022-11-17T07:26:24.263Z,4.57
2022-11-17T07:29:26.177Z,3.13
2022-11-17T07:32:28.223Z,3.67
2022-11-17T07:35:30.267Z,4.63
2022-11-17T07:38:34.238Z,4.15
2022-11-17T07:41:36.495Z,4.35
2022-11-17T07:44:38.502Z,4.35
2022-11-17T07:47:40.479Z,5.57
2022-11-17T07:50:42.578Z,7.00
2022-11-17T07:53:44.593Z,4.50
2022-11-17T07:56:46.700Z,2.40
2022-11-17T07:59:48.906Z,4.30
2022-11-17T08:02:50.809Z,4.30
2022-11-17T08:05:52.831Z,6.88
2022-11-17T08:08:57.238Z,6.32
2022-11-17T08:11:59.767Z,4.07
2022-11-17T08:18:03.900Z,4.43
2022-11-17T08:21:08.621Z,3.55
2022-11-17T08:24:12.958Z,5.63
2022-11-17T08:27:15.418Z,5.32
2022-11-17T08:30:18.245Z,5.35
2022-11-17T08:33:20.214Z,4.35
2022-11-17T08:36:22.259Z,4.93
2022-11-17T08:39:24.274Z,4.40
2022-11-17T08:42:26.245Z,4.65
2022-11-17T08:45:28.274Z,4.32
2022-11-17T08:48:30.415Z,3.58
2022-11-17T08:51:32.817Z,6.07
2022-11-17T08:54:35.203Z,3.92
2022-11-17T08:57:37.193Z,5.55
2022-11-17T09:00:40.472Z,5.47
2022-11-17T09:03:44.426Z,3.58
2022-11-17T09:06:46.413Z,4.78
2022-11-17T09:09:48.424Z,4.72
2022-11-17T09:12:50.619Z,4.65
2022-11-17T09:15:53.360Z,4.97
2022-11-17T09:18:56.718Z,5.07
2022-11-17T09:21:58.688Z,4.40
2022-11-17T09:25:03.432Z,4.70
2022-11-17T09:28:06.812Z,3.88
2022-11-17T09:31:14.183Z,3.85
2022-11-17T09:34:17.216Z,5.43
2022-11-17T09:37:19.332Z,5.80
2022-11-17T09:40:21.464Z,6.50
2022-11-17T09:43:33.978Z,4.20
2022-11-17T09:46:57.358Z,4.30
2022-11-17T09:50:29.059Z,3.83
2022-11-17T09:53:52.549Z,3.53
2022-11-17T09:56:56.604Z,5.50
2022-11-17T10:00:15.028Z,5.85
2022-11-17T10:03:28.274Z,2.70
2022-11-17T10:06:31.720Z,3.40
2022-11-17T10:09:42.190Z,4.07
2022-11-17T10:12:51.624Z,6.47
2022-11-17T10:16:06.549Z,5.55
2022-11-17T10:19:14.950Z,3.65
2022-11-17T10:22:33.358Z,6.47
2022-11-17T10:25:38.385Z,4.00
2022-11-17T10:28:40.667Z,6.05
2022-11-17T10:31:45.720Z,4.82
2022-11-17T10:34:47.792Z,3.88
2022-11-17T10:37:59.673Z,6.07
2022-11-17T10:41:02.559Z,6.53
2022-11-17T10:44:23.534Z,7.38
2022-11-17T10:47:29.945Z,6.20
2022-11-17T10:50:34.124Z,5.55
2022-11-17T10:53:45.211Z,6.63
2022-11-17T10:56:52.144Z,4.72
2022-11-17T10:59:57.256Z,5.07
2022-11-17T11:03:21.382Z,6.30
2022-11-17T11:06:28.974Z,6.30
2022-11-17T11:09:31.854Z,4.78
2022-11-17T11:12:41.539Z,4.88
2022-11-17T11:15:44.893Z,3.28
2022-11-17T11:18:49.746Z,5.50
2022-11-17T11:21:57.617Z,4.93
2022-11-17T11:25:29.729Z,6.57
2022-11-17T11:28:56.275Z,5.53
2022-11-17T11:35:26.219Z,6.50
2022-11-17T11:38:58.106Z,6.03
2022-11-17T11:42:21.465Z,7.40
2022-11-17T11:45:37.104Z,7.55
2022-11-17T11:48:41.071Z,5.78
2022-11-17T12:03:35.354Z,5.82
2022-11-17T12:07:18.924Z,3.33
2022-11-17T12:10:36.716Z,5.30
2022-11-17T12:13:46.158Z,4.65
2022-11-17T12:16:59.899Z,3.90
2022-11-17T12:20:10.428Z,6.38
2022-11-17T12:23:34.712Z,5.82
2022-11-17T12:26:36.619Z,4.82
2022-11-17T12:29:46.643Z,8.10
2022-11-17T12:32:48.515Z,3.30
2022-11-17T12:36:16.590Z,7.65
2022-11-17T12:39:52.781Z,6.40
2022-11-17T12:43:27.477Z,10.63
2022-11-17T12:46:32.506Z,7.00
2022-11-17T12:49:47.855Z,10.32
2022-11-17T12:53:16.546Z,5.80
2022-11-17T12:56:39.426Z,4.00
2022-11-17T12:59:59.890Z,7.78
2022-11-17T13:09:37.627Z,6.47
2022-11-17T13:12:39.609Z,3.70
2022-11-17T13:15:43.193Z,3.88
2022-11-17T13:18:46.228Z,4.50
2022-11-17T13:21:48.124Z,4.25
2022-11-17T13:24:50.951Z,5.43
2022-11-17T13:27:58.442Z,4.22
2022-11-17T13:31:03.757Z,4.68
2022-11-17T13:34:13.881Z,4.50
2022-11-17T13:37:18.463Z,5.80
2022-11-17T13:40:21.913Z,3.83
2022-11-17T13:43:25.641Z,5.78
2022-11-17T13:46:27.521Z,6.43
2022-11-17T13:49:39.576Z,3.45
2022-11-17T13:52:46.750Z,5.45
2022-11-17T13:55:49.800Z,3.47
2022-11-17T13:58:52.801Z,7.35
2022-11-17T14:02:33.382Z,7.18
2022-11-17T14:05:35.331Z,4.72
2022-11-17T14:08:41.265Z,4.88
2022-11-17T14:11:43.274Z,3.40
2022-11-17T14:14:45.295Z,4.15
2022-11-17T14:18:20.119Z,6.53
2022-11-17T14:21:22.178Z,5.70
2022-11-17T14:24:24.954Z,6.72
2022-11-17T14:27:29.907Z,5.03
2022-11-17T14:30:31.845Z,7.43
2022-11-17T14:33:33.723Z,6.35
2022-11-17T14:36:37.393Z,5.35
2022-11-17T14:39:39.316Z,6.38
2022-11-17T14:42:41.663Z,5.72
2022-11-17T14:45:43.751Z,15.55
2022-11-17T14:48:45.968Z,14.55
2022-11-17T14:51:51.116Z,21.58
2022-11-17T14:54:53.208Z,12.38
2022-11-17T14:57:55.170Z,6.97
2022-11-17T15:00:57.052Z,3.55
2022-11-17T15:04:15.472Z,10.15
2022-11-17T15:07:24.149Z,6.10
2022-11-17T15:10:26.068Z,6.95
2022-11-17T15:13:28.303Z,5.70
2022-11-17T15:16:30.213Z,7.82
2022-11-17T15:19:32.096Z,4.68
2022-11-17T15:22:34.058Z,12.13
2022-11-17T15:25:38.329Z,10.68
2022-11-17T15:28:40.605Z,7.68
2022-11-17T15:31:43.086Z,10.48
2022-11-17T15:37:46.700Z,8.23
2022-11-17T15:40:53.886Z,5.95
2022-11-17T15:43:55.840Z,8.20
2022-11-17T15:50:05.134Z,10.43
2022-11-17T15:53:07.141Z,5.03
2022-11-17T15:56:10.667Z,4.38
2022-11-17T15:59:12.574Z,8.02
2022-11-17T16:02:14.489Z,6.28
2022-11-17T16:05:16.440Z,5.13
2022-11-17T16:08:18.344Z,7.10
2022-11-17T16:11:20.793Z,7.45
2022-11-17T16:14:23.154Z,7.28
2022-11-17T16:17:25.037Z,8.85
2022-11-17T16:20:27.180Z,7.47
2022-11-17T16:23:29.160Z,9.30
2022-11-17T16:26:31.721Z,8.30
2022-11-17T16:32:35.506Z,6.28
2022-11-17T16:35:38.413Z,7.22
2022-11-17T16:38:55.090Z,6.93
2022-11-17T16:42:02.243Z,10.05
2022-11-17T16:45:06.709Z,9.57
2022-11-17T16:48:11.328Z,9.30
2022-11-17T16:51:14.594Z,7.80
2022-11-17T16:54:17.292Z,14.52
2022-11-17T16:57:19.128Z,13.48
2022-11-17T17:00:21.066Z,14.13
2022-11-17T17:03:23.042Z,11.02
2022-11-17T17:06:25.544Z,13.85
2022-11-17T17:09:28.169Z,13.40
2022-11-17T17:12:30.378Z,11.52
2022-11-17T17:15:33.598Z,11.05
2022-11-17T17:18:35.918Z,8.88
2022-11-17T17:21:38.724Z,7.63
2022-11-17T17:24:40.570Z,9.63
2022-11-17T17:27:42.588Z,7.60
2022-11-17T17:30:44.424Z,9.40
2022-11-17T17:33:48.538Z,9.60
2022-11-17T17:36:50.436Z,9.00
2022-11-17T17:39:54.631Z,13.32
2022-11-17T17:42:56.428Z,11.70
2022-11-17T17:46:03.496Z,10.77
2022-11-17T17:49:06.066Z,13.38
2022-11-17T17:55:15.780Z,11.00
2022-11-17T17:58:17.614Z,10.00
2022-11-17T18:01:22.186Z,13.20
2022-11-17T18:04:26.368Z,8.73
2022-11-17T18:07:28.296Z,12.15
2022-11-17T18:10:30.208Z,12.60
2022-11-17T18:13:36.033Z,15.07
2022-11-17T18:16:40.757Z,9.45
2022-11-17T18:19:42.657Z,11.50
2022-11-17T18:22:44.681Z,10.02
2022-11-17T18:25:46.528Z,13.80
2022-11-17T18:29:06.320Z,12.45
2022-11-17T18:32:08.178Z,25.90
2022-11-17T18:35:10.042Z,14.75
2022-11-17T18:38:12.030Z,12.52
2022-11-17T18:41:15.732Z,12.32
2022-11-17T18:44:18.736Z,12.45
2022-11-17T18:47:20.739Z,21.73
2022-11-17T18:50:22.972Z,16.63
2022-11-17T18:53:25.177Z,15.23
2022-11-17T18:56:35.943Z,9.32
2022-11-17T18:59:37.986Z,15.90
2022-11-17T19:02:43.464Z,19.05
2022-11-17T19:06:02.931Z,11.55
2022-11-17T19:09:05.033Z,12.30
2022-11-17T19:12:10.625Z,13.60
2022-11-17T19:15:12.675Z,11.43
2022-11-17T19:18:18.109Z,11.77
2022-11-17T19:21:28.960Z,10.50
2022-11-17T19:24:31.085Z,11.50
2022-11-17T19:27:33.401Z,11.57
2022-11-17T19:30:35.651Z,10.10
2022-11-17T19:33:39.877Z,10.70
2022-11-17T19:36:42.067Z,9.90
2022-11-17T19:39:44.228Z,12.93
2022-11-17T19:42:48.163Z,11.98
2022-11-17T19:48:57.690Z,9.05
2022-11-17T19:51:59.637Z,15.00
2022-11-17T19:55:01.585Z,8.57
2022-11-17T19:58:03.713Z,7.57
2022-11-17T20:01:10.004Z,6.72
2022-11-17T20:04:12.714Z,4.53
2022-11-17T20:07:14.774Z,5.30
2022-11-17T20:10:17.592Z,4.78
2022-11-17T20:13:19.952Z,6.03
2022-11-17T20:16:27.181Z,4.07
2022-11-17T20:19:29.114Z,4.90
2022-11-17T20:22:32.699Z,4.90
2022-11-17T20:25:37.748Z,3.35
2022-11-17T20:28:40.545Z,5.45
2022-11-17T20:31:42.689Z,3.20
2022-11-17T20:34:44.728Z,4.03
2022-11-17T20:37:46.666Z,2.78
2022-11-17T20:40:48.634Z,2.90
2022-11-17T20:43:52.654Z,2.80
2022-11-17T20:46:56.967Z,3.17
2022-11-17T20:49:58.882Z,2.85
2022-11-17T20:53:00.936Z,2.75
2022-11-17T20:56:05.395Z,4.63
2022-11-17T20:59:07.571Z,4.22
2022-11-17T21:02:11.483Z,5.90
2022-11-17T21:05:13.977Z,5.15
2022-11-17T21:08:15.928Z,7.28
2022-11-17T21:11:22.934Z,3.97
2022-11-17T21:14:26.579Z,3.63
2022-11-17T21:17:28.640Z,3.65
2022-11-17T21:20:30.675Z,4.13
2022-11-17T21:23:32.812Z,5.40
2022-11-17T21:26:34.859Z,3.15
2022-11-17T21:29:39.310Z,4.88
2022-11-17T21:32:42.038Z,4.78
2022-11-17T21:35:44.596Z,3.17
2022-11-17T21:38:47.196Z,3.50
2022-11-17T21:44:51.260Z,5.85
2022-11-17T21:47:59.071Z,6.95
2022-11-17T21:51:01.513Z,4.15
2022-11-17T21:54:05.915Z,3.00
2022-11-17T21:57:07.974Z,5.13
2022-11-17T22:00:13.669Z,4.45
2022-11-17T22:03:15.672Z,4.47
2022-11-17T22:06:19.871Z,3.55
2022-11-17T22:09:21.800Z,4.35
2022-11-17T22:12:23.751Z,5.43
2022-11-17T22:15:25.738Z,5.50
2022-11-17T22:18:27.755Z,4.15
2022-11-17T22:21:30.360Z,5.15
2022-11-17T22:24:32.379Z,2.90
2022-11-17T22:27:34.621Z,4.13
2022-11-17T22:30:38.912Z,2.90
2022-11-17T22:33:41.007Z,4.07
2022-11-17T22:36:43.181Z,2.92
2022-11-17T22:39:47.705Z,2.38
2022-11-17T22:42:52.894Z,3.83
2022-11-17T22:45:54.877Z,2.90
2022-11-17T22:48:56.882Z,2.63
2022-11-17T22:51:59.068Z,3.22
2022-11-17T22:55:01.035Z,5.47
2022-11-17T22:58:03.583Z,2.67
2022-11-17T23:01:07.967Z,2.53
2022-11-17T23:04:11.752Z,4.88
2022-11-17T23:07:13.951Z,3.25
2022-11-17T23:10:16.307Z,3.15
2022-11-17T23:13:18.383Z,4.07
2022-11-17T23:16:20.502Z,3.92
2022-11-17T23:19:22.567Z,3.83
2022-11-17T23:22:24.676Z,4.47
2022-11-17T23:25:26.887Z,5.65
2022-11-17T23:28:28.846Z,3.72
2022-11-17T23:31:30.847Z,7.30
2022-11-17T23:34:32.850Z,4.60
2022-11-17T23:37:35.469Z,5.05
2022-11-17T23:40:37.733Z,4.85
2022-11-17T23:43:40.472Z,3.67
2022-11-17T23:46:42.402Z,6.28
2022-11-17T23:49:44.695Z,4.60
2022-11-17T23:52:46.722Z,6.00
2022-11-17T23:55:55.401Z,4.43
